createdAt,value
2023-05-23T00:00:59.897Z,19.13
2023-05-23T00:03:27.614Z,19.53
2023-05-23T00:05:56.710Z,20.00
2023-05-23T00:08:23.785Z,20.33
2023-05-23T00:10:50.565Z,19.17
2023-05-23T00:13:17.704Z,18.97
2023-05-23T00:15:45.129Z,20.23
2023-05-23T00:18:12.613Z,18.63
2023-05-23T00:20:40.965Z,19.90
2023-05-23T00:23:09.936Z,19.27
2023-05-23T00:25:37.469Z,19.00
2023-05-23T00:28:05.043Z,19.07
2023-05-23T00:30:33.366Z,19.33
2023-05-23T00:33:01.153Z,17.00
2023-05-23T00:35:28.015Z,18.07
2023-05-23T00:37:55.659Z,18.07
2023-05-23T00:40:23.097Z,17.43
2023-05-23T00:42:49.972Z,17.00
2023-05-23T00:45:17.224Z,16.43
2023-05-23T00:47:45.146Z,16.70
2023-05-23T00:50:16.924Z,16.40
2023-05-23T00:52:45.873Z,15.53
2023-05-23T00:55:13.386Z,15.93
2023-05-23T00:57:44.621Z,17.13
2023-05-23T01:00:15.479Z,17.20
2023-05-23T01:02:47.248Z,16.43
2023-05-23T01:05:17.851Z,16.70
2023-05-23T01:07:48.988Z,17.40
2023-05-23T01:10:18.192Z,17.43
2023-05-23T01:13:23.428Z,17.03
2023-05-23T01:16:06.522Z,16.90
2023-05-23T01:18:59.198Z,17.33
2023-05-23T01:21:27.090Z,17.90
2023-05-23T01:24:18.671Z,17.20
2023-05-23T01:27:10.160Z,17.13
2023-05-23T01:29:41.889Z,17.33
2023-05-23T01:32:11.832Z,17.47
2023-05-23T01:34:40.140Z,16.30
2023-05-23T01:37:11.370Z,15.90
2023-05-23T01:39:39.433Z,15.17
2023-05-23T01:42:07.051Z,15.30
2023-05-23T01:44:35.559Z,14.07
2023-05-23T01:47:07.358Z,13.77
2023-05-23T01:49:36.127Z,14.00
2023-05-23T01:52:03.545Z,13.83
2023-05-23T01:54:32.547Z,13.83
2023-05-23T01:56:59.787Z,14.87
2023-05-23T01:59:26.773Z,13.47
2023-05-23T02:01:55.026Z,14.53
2023-05-23T02:04:22.178Z,14.67
2023-05-23T02:06:48.963Z,12.63
2023-05-23T02:09:16.622Z,14.00
2023-05-23T02:11:44.970Z,13.80
2023-05-23T02:14:13.067Z,14.53
2023-05-23T02:16:40.061Z,13.93
2023-05-23T02:19:07.180Z,12.57
2023-05-23T02:21:35.527Z,13.17
2023-05-23T02:24:03.620Z,13.00
2023-05-23T02:26:30.765Z,13.53
2023-05-23T02:28:57.805Z,13.37
2023-05-23T02:31:25.106Z,11.87
2023-05-23T02:33:52.051Z,11.30
2023-05-23T02:36:18.902Z,11.10
2023-05-23T02:38:45.909Z,10.63
2023-05-23T02:41:12.773Z,10.77
2023-05-23T02:43:39.711Z,10.60
2023-05-23T02:46:06.836Z,10.73
2023-05-23T02:48:33.674Z,9.87
2023-05-23T02:51:00.694Z,10.60
2023-05-23T02:53:27.715Z,10.43
2023-05-23T02:55:54.692Z,10.23
2023-05-23T02:58:21.719Z,10.50
2023-05-23T03:00:48.651Z,9.63
2023-05-23T03:03:17.038Z,10.43
2023-05-23T03:05:44.276Z,9.97
2023-05-23T03:08:11.155Z,9.90
2023-05-23T03:10:37.851Z,11.10
2023-05-23T03:13:04.979Z,10.50
2023-05-23T03:15:32.020Z,10.30
2023-05-23T03:17:59.355Z,10.10
2023-05-23T03:20:26.398Z,10.30
2023-05-23T03:22:54.675Z,11.10
2023-05-23T03:25:23.180Z,12.27
2023-05-23T03:27:50.122Z,12.27
2023-05-23T03:30:17.042Z,12.50
2023-05-23T03:32:43.861Z,12.93
2023-05-23T03:35:11.535Z,14.07
2023-05-23T03:37:39.796Z,13.60
2023-05-23T03:40:07.525Z,12.87
2023-05-23T03:42:35.044Z,14.63
2023-05-23T03:45:01.958Z,14.60
2023-05-23T03:47:28.784Z,13.87
2023-05-23T03:49:57.983Z,14.50
2023-05-23T03:52:25.597Z,14.27
2023-05-23T03:54:52.366Z,13.60
2023-05-23T03:57:19.531Z,14.10
2023-05-23T03:59:47.053Z,13.87
2023-05-23T04:02:14.759Z,13.47
2023-05-23T04:04:41.677Z,14.77
2023-05-23T04:07:10.137Z,13.87
2023-05-23T04:09:38.889Z,13.87
2023-05-23T04:12:09.830Z,13.93
2023-05-23T04:14:37.451Z,13.60
2023-05-23T04:17:04.404Z,11.63
2023-05-23T04:19:32.102Z,12.10
2023-05-23T04:21:58.991Z,10.27
2023-05-23T04:24:26.170Z,10.23
2023-05-23T04:26:56.287Z,9.40
2023-05-23T04:29:25.173Z,8.70
2023-05-23T04:31:52.020Z,9.17
2023-05-23T04:34:22.199Z,9.10
2023-05-23T04:36:49.568Z,9.83
2023-05-23T04:39:16.724Z,9.23
2023-05-23T04:41:59.695Z,8.93
2023-05-23T04:44:45.160Z,7.70
2023-05-23T04:47:17.752Z,8.37
2023-05-23T04:50:06.355Z,8.43
2023-05-23T04:52:34.305Z,8.50
2023-05-23T04:55:01.583Z,9.13
2023-05-23T04:57:29.089Z,8.93
2023-05-23T04:59:57.054Z,8.50
2023-05-23T05:02:24.157Z,8.17
2023-05-23T05:04:51.342Z,8.67
2023-05-23T05:07:18.387Z,8.10
2023-05-23T05:09:45.218Z,8.83
2023-05-23T05:12:13.518Z,8.50
2023-05-23T05:14:40.846Z,8.07
2023-05-23T05:17:08.188Z,9.13
2023-05-23T05:19:47.117Z,7.93
2023-05-23T05:22:15.208Z,8.53
2023-05-23T05:24:42.122Z,7.23
2023-05-23T05:27:09.587Z,8.00
2023-05-23T05:29:36.623Z,7.67
2023-05-23T05:32:04.578Z,7.70
2023-05-23T05:34:31.313Z,7.60
2023-05-23T05:36:59.008Z,6.73
2023-05-23T05:39:26.530Z,7.37
2023-05-23T05:41:54.200Z,7.47
2023-05-23T05:44:21.232Z,7.03
2023-05-23T05:46:48.897Z,6.37
2023-05-23T05:49:15.855Z,7.13
2023-05-23T05:51:44.836Z,7.67
2023-05-23T05:54:12.765Z,7.33
2023-05-23T05:56:39.665Z,7.73
2023-05-23T05:59:06.536Z,7.27
2023-05-23T06:01:34.895Z,8.23
2023-05-23T06:04:01.882Z,8.80
2023-05-23T06:06:29.063Z,10.43
2023-05-23T06:08:55.839Z,9.00
2023-05-23T06:11:22.755Z,9.43
2023-05-23T06:13:49.498Z,9.37
2023-05-23T06:16:16.522Z,9.27
2023-05-23T06:18:45.129Z,10.37
2023-05-23T06:21:12.061Z,9.57
2023-05-23T06:23:39.003Z,10.63
2023-05-23T06:26:10.667Z,9.90
2023-05-23T06:28:39.665Z,10.30
2023-05-23T06:31:10.024Z,9.57
2023-05-23T06:33:37.125Z,10.87
2023-05-23T06:36:04.146Z,10.80
2023-05-23T06:38:35.202Z,9.10
2023-05-23T06:41:03.814Z,10.03
2023-05-23T06:43:31.056Z,8.70
2023-05-23T06:46:13.774Z,8.73
2023-05-23T06:48:40.625Z,9.30
2023-05-23T06:51:07.479Z,8.73
2023-05-23T06:53:34.312Z,8.37
2023-05-23T06:56:01.377Z,7.17
2023-05-23T06:58:30.140Z,8.47
2023-05-23T07:00:58.756Z,6.70
2023-05-23T07:03:32.746Z,5.93
2023-05-23T07:06:04.543Z,5.97
2023-05-23T07:08:31.937Z,6.10
2023-05-23T07:11:00.407Z,4.60
2023-05-23T07:13:37.827Z,5.47
2023-05-23T07:16:04.989Z,4.20
2023-05-23T07:18:36.160Z,4.60
2023-05-23T07:21:05.441Z,4.80
2023-05-23T07:23:36.363Z,3.57
2023-05-23T07:26:03.985Z,3.50
2023-05-23T07:28:40.201Z,3.40
2023-05-23T07:31:09.651Z,3.20
2023-05-23T07:33:37.413Z,3.10
2023-05-23T07:36:05.259Z,3.23
2023-05-23T07:38:32.787Z,3.00
2023-05-23T07:41:10.678Z,3.30
2023-05-23T07:43:40.387Z,3.07
2023-05-23T07:46:07.381Z,3.10
2023-05-23T07:48:34.300Z,2.90
2023-05-23T07:51:01.558Z,3.10
2023-05-23T07:53:28.995Z,3.17
2023-05-23T07:55:56.795Z,3.40
2023-05-23T07:58:26.546Z,3.30
2023-05-23T08:00:53.632Z,4.37
2023-05-23T08:03:49.817Z,3.67
2023-05-23T08:06:23.023Z,3.87
2023-05-23T08:08:51.153Z,3.60
2023-05-23T08:11:17.985Z,3.60
2023-05-23T08:13:50.795Z,4.10
2023-05-23T08:16:43.207Z,4.20
2023-05-23T08:19:15.379Z,4.00
2023-05-23T08:21:42.678Z,4.33
2023-05-23T08:24:09.670Z,4.40
2023-05-23T08:26:37.886Z,4.10
2023-05-23T08:29:08.544Z,4.03
2023-05-23T08:31:37.361Z,4.53
2023-05-23T08:34:05.538Z,4.70
2023-05-23T08:36:36.616Z,5.10
2023-05-23T08:39:05.852Z,4.77
2023-05-23T08:41:36.631Z,4.40
2023-05-23T08:44:08.711Z,4.70
2023-05-23T08:46:45.905Z,4.83
2023-05-23T08:49:19.319Z,4.90
2023-05-23T08:51:47.346Z,4.63
2023-05-23T08:54:19.668Z,5.03
2023-05-23T08:56:46.408Z,4.53
2023-05-23T08:59:15.224Z,4.67
2023-05-23T09:01:44.128Z,5.27
2023-05-23T09:04:12.766Z,4.70
2023-05-23T09:06:56.161Z,5.23
2023-05-23T09:09:23.258Z,5.40
2023-05-23T09:11:51.081Z,6.00
2023-05-23T09:14:18.357Z,4.20
2023-05-23T09:16:51.945Z,4.03
2023-05-23T09:19:22.479Z,4.07
2023-05-23T09:21:55.731Z,3.60
2023-05-23T09:24:36.095Z,3.57
2023-05-23T09:27:08.676Z,4.07
2023-05-23T09:29:41.750Z,4.17
2023-05-23T09:32:14.457Z,4.00
2023-05-23T09:34:43.085Z,4.13
2023-05-23T09:37:13.694Z,4.10
2023-05-23T09:39:46.575Z,4.67
2023-05-23T09:42:23.600Z,5.03
2023-05-23T09:44:51.117Z,4.53
2023-05-23T09:47:18.291Z,5.40
2023-05-23T09:49:46.786Z,4.60
2023-05-23T09:52:13.673Z,5.17
2023-05-23T09:54:41.044Z,4.70
2023-05-23T09:57:11.669Z,5.53
2023-05-23T09:59:41.359Z,5.37
2023-05-23T10:02:11.928Z,3.93
2023-05-23T10:04:43.553Z,4.47
2023-05-23T10:07:23.611Z,4.13
2023-05-23T10:09:59.051Z,4.53
2023-05-23T10:12:32.495Z,4.53
2023-05-23T10:15:04.706Z,4.63
2023-05-23T10:17:52.864Z,4.93
2023-05-23T10:20:22.647Z,4.43
2023-05-23T10:22:50.178Z,4.53
2023-05-23T10:25:17.347Z,4.77
2023-05-23T10:27:45.623Z,4.63
2023-05-23T10:30:13.088Z,4.40
2023-05-23T10:32:40.050Z,4.70
2023-05-23T10:35:11.778Z,4.00
2023-05-23T10:37:56.461Z,3.87
2023-05-23T10:40:23.554Z,3.93
2023-05-23T10:42:56.534Z,3.87
2023-05-23T10:45:27.277Z,4.10
2023-05-23T10:47:54.537Z,3.33
2023-05-23T10:50:41.885Z,4.03
2023-05-23T10:53:11.346Z,3.57
2023-05-23T10:55:38.266Z,4.10
2023-05-23T10:58:12.052Z,4.27
2023-05-23T11:00:38.999Z,4.10
2023-05-23T11:03:09.300Z,4.70
2023-05-23T11:05:38.747Z,3.40
2023-05-23T11:08:17.908Z,3.27
2023-05-23T11:11:04.974Z,3.37
2023-05-23T11:13:53.631Z,3.50
2023-05-23T11:16:27.394Z,3.30
2023-05-23T11:19:33.178Z,3.67
2023-05-23T11:22:02.234Z,4.17
2023-05-23T11:24:48.158Z,4.00
2023-05-23T11:27:15.614Z,3.10
2023-05-23T11:29:42.517Z,3.17
2023-05-23T11:32:17.224Z,3.20
2023-05-23T11:34:44.697Z,3.40
2023-05-23T11:37:12.129Z,3.03
2023-05-23T11:39:40.588Z,3.20
2023-05-23T11:42:07.809Z,3.20
2023-05-23T11:44:34.675Z,3.07
2023-05-23T11:47:06.823Z,2.63
2023-05-23T11:49:38.447Z,2.37
2023-05-23T11:52:06.681Z,2.77
2023-05-23T11:54:33.712Z,2.90
2023-05-23T11:57:01.064Z,2.43
2023-05-23T11:59:28.617Z,2.97
2023-05-23T12:01:56.157Z,2.27
2023-05-23T12:04:23.138Z,2.57
2023-05-23T12:06:50.608Z,2.57
2023-05-23T12:09:17.553Z,2.70
2023-05-23T12:11:45.805Z,2.43
2023-05-23T12:14:18.724Z,2.63
2023-05-23T12:16:46.978Z,2.73
2023-05-23T12:19:15.651Z,2.40
2023-05-23T12:21:44.327Z,2.40
2023-05-23T12:24:19.369Z,2.67
2023-05-23T12:26:51.267Z,2.73
2023-05-23T12:29:22.481Z,2.50
2023-05-23T12:31:50.986Z,3.03
2023-05-23T12:34:17.880Z,3.50
2023-05-23T12:36:49.300Z,2.90
2023-05-23T12:39:17.045Z,2.67
2023-05-23T12:41:45.474Z,3.47
2023-05-23T12:44:16.348Z,3.30
2023-05-23T12:46:43.669Z,2.70
2023-05-23T12:49:11.202Z,3.00
2023-05-23T12:51:38.061Z,3.27
2023-05-23T12:54:04.978Z,3.87
2023-05-23T12:56:32.006Z,2.80
2023-05-23T12:58:59.538Z,2.87
2023-05-23T13:01:26.879Z,2.73
2023-05-23T13:03:53.768Z,2.63
2023-05-23T13:06:20.572Z,2.77
2023-05-23T13:08:48.771Z,3.00
2023-05-23T13:11:16.130Z,3.23
2023-05-23T13:13:43.110Z,3.40
2023-05-23T13:16:09.912Z,3.07
2023-05-23T13:18:36.928Z,2.80
2023-05-23T13:21:03.983Z,2.50
2023-05-23T13:23:31.009Z,3.20
2023-05-23T13:25:58.155Z,3.10
2023-05-23T13:28:24.963Z,3.10
2023-05-23T13:30:51.784Z,3.20
2023-05-23T13:33:18.531Z,3.27
2023-05-23T13:35:45.557Z,2.70
2023-05-23T13:38:12.855Z,2.90
2023-05-23T13:40:39.996Z,3.40
2023-05-23T13:43:07.210Z,3.20
2023-05-23T13:45:34.515Z,2.90
2023-05-23T13:48:01.395Z,3.43
2023-05-23T13:50:28.297Z,3.23
2023-05-23T13:52:55.089Z,3.13
2023-05-23T13:55:21.928Z,2.93
2023-05-23T13:57:48.750Z,3.00
2023-05-23T14:00:16.369Z,3.20
2023-05-23T14:02:43.214Z,2.57
2023-05-23T14:05:10.159Z,2.87
2023-05-23T14:07:37.085Z,3.03
2023-05-23T14:10:05.171Z,3.00
2023-05-23T14:12:32.007Z,2.67
2023-05-23T14:14:59.265Z,3.00
2023-05-23T14:17:26.078Z,3.17
2023-05-23T14:19:53.061Z,2.70
2023-05-23T14:22:26.193Z,3.30
2023-05-23T14:24:53.059Z,2.97
2023-05-23T14:27:22.676Z,2.60
2023-05-23T14:29:49.938Z,2.50
2023-05-23T14:32:16.766Z,3.00
2023-05-23T14:34:43.657Z,2.90
2023-05-23T14:37:10.453Z,3.07
2023-05-23T14:39:37.278Z,3.17
2023-05-23T14:42:06.987Z,3.30
2023-05-23T14:44:35.664Z,2.90
2023-05-23T14:47:02.848Z,3.13
2023-05-23T14:49:29.658Z,3.73
2023-05-23T14:51:56.474Z,3.20
2023-05-23T14:54:23.505Z,3.17
2023-05-23T14:56:56.322Z,3.10
2023-05-23T14:59:23.581Z,2.90
2023-05-23T15:01:50.519Z,2.63
2023-05-23T15:04:17.912Z,2.80
2023-05-23T15:06:47.230Z,3.33
2023-05-23T15:09:14.154Z,3.00
2023-05-23T15:11:42.422Z,3.20
2023-05-23T15:14:09.674Z,3.17
2023-05-23T15:16:37.437Z,2.73
2023-05-23T15:19:05.182Z,3.60
2023-05-23T15:21:32.359Z,3.00
2023-05-23T15:23:59.924Z,3.03
2023-05-23T15:26:27.427Z,2.43
2023-05-23T15:28:54.572Z,3.13
2023-05-23T15:31:21.648Z,2.60
2023-05-23T15:33:51.828Z,2.80
2023-05-23T15:36:18.828Z,2.83
2023-05-23T15:38:46.076Z,2.43
2023-05-23T15:41:13.068Z,3.03
2023-05-23T15:43:42.585Z,2.90
2023-05-23T15:46:09.602Z,3.30
2023-05-23T15:48:36.473Z,2.67
2023-05-23T15:51:03.439Z,2.90
2023-05-23T15:53:40.195Z,2.80
2023-05-23T15:56:15.960Z,2.73
2023-05-23T15:58:43.550Z,3.00
2023-05-23T16:01:10.485Z,2.93
2023-05-23T16:03:37.842Z,2.97
2023-05-23T16:06:05.097Z,2.63
2023-05-23T16:08:31.883Z,2.33
2023-05-23T16:10:58.738Z,2.57
2023-05-23T16:13:25.609Z,3.23
2023-05-23T16:15:52.911Z,2.40
2023-05-23T16:18:23.389Z,2.40
2023-05-23T16:20:51.285Z,2.80
2023-05-23T16:23:18.248Z,2.93
2023-05-23T16:25:46.529Z,2.50
2023-05-23T16:28:13.378Z,2.77
2023-05-23T16:30:40.182Z,2.37
2023-05-23T16:33:06.979Z,2.83
2023-05-23T16:35:34.293Z,2.83
2023-05-23T16:38:01.142Z,2.57
2023-05-23T16:40:27.848Z,2.90
2023-05-23T16:42:55.176Z,2.60
2023-05-23T16:45:22.136Z,2.50
2023-05-23T16:47:49.620Z,2.60
2023-05-23T16:50:16.599Z,2.33
2023-05-23T16:52:44.865Z,2.70
2023-05-23T16:55:11.827Z,2.63
2023-05-23T16:57:38.823Z,3.40
2023-05-23T17:00:07.691Z,2.97
2023-05-23T17:02:34.827Z,2.67
2023-05-23T17:05:01.929Z,2.40
2023-05-23T17:07:31.427Z,2.80
2023-05-23T17:10:00.918Z,3.10
2023-05-23T17:12:27.804Z,3.53
2023-05-23T17:14:55.027Z,3.17
2023-05-23T17:17:22.011Z,3.47
2023-05-23T17:19:50.779Z,2.50
2023-05-23T17:22:17.606Z,3.17
2023-05-23T17:24:44.418Z,2.67
2023-05-23T17:27:11.448Z,2.80
2023-05-23T17:29:38.226Z,2.70
2023-05-23T17:32:05.306Z,2.90
2023-05-23T17:34:32.307Z,2.20
2023-05-23T17:36:59.115Z,3.00
2023-05-23T17:39:26.286Z,2.70
2023-05-23T17:41:53.468Z,2.90
2023-05-23T17:44:24.320Z,2.43
2023-05-23T17:46:51.174Z,2.67
2023-05-23T17:49:18.579Z,2.90
2023-05-23T17:51:45.863Z,2.83
2023-05-23T17:54:12.701Z,2.50
2023-05-23T17:56:39.583Z,2.90
2023-05-23T17:59:06.779Z,2.37
2023-05-23T18:01:34.286Z,2.93
2023-05-23T18:04:01.999Z,2.77
2023-05-23T18:06:28.875Z,2.67
2023-05-23T18:08:55.717Z,2.63
2023-05-23T18:11:24.151Z,2.37
2023-05-23T18:13:50.968Z,3.13
2023-05-23T18:16:17.866Z,2.57
2023-05-23T18:18:44.768Z,2.40
2023-05-23T18:21:11.507Z,2.50
2023-05-23T18:23:38.563Z,3.20
2023-05-23T18:26:05.857Z,2.43
2023-05-23T18:28:32.671Z,2.40
2023-05-23T18:30:59.480Z,2.30
2023-05-23T18:33:27.780Z,2.83
2023-05-23T18:35:54.825Z,2.40
2023-05-23T18:38:21.807Z,2.50
2023-05-23T18:40:48.565Z,2.53
2023-05-23T18:43:17.503Z,2.17
2023-05-23T18:45:44.696Z,2.57
2023-05-23T18:48:11.652Z,2.60
2023-05-23T18:50:38.788Z,2.47
2023-05-23T18:53:05.741Z,3.30
2023-05-23T18:55:32.646Z,2.50
2023-05-23T18:57:59.632Z,2.47
2023-05-23T19:00:26.522Z,2.53
2023-05-23T19:02:53.395Z,3.03
2023-05-23T19:05:21.464Z,2.53
2023-05-23T19:07:48.425Z,2.17
2023-05-23T19:10:15.166Z,2.30
2023-05-23T19:12:41.951Z,2.23
2023-05-23T19:15:10.713Z,2.20
2023-05-23T19:17:38.183Z,2.37
2023-05-23T19:20:05.451Z,2.43
2023-05-23T19:22:46.992Z,2.30
2023-05-23T19:25:17.548Z,2.40
2023-05-23T19:27:44.490Z,2.87
2023-05-23T19:30:11.837Z,2.60
2023-05-23T19:32:38.671Z,2.57
2023-05-23T19:35:06.100Z,2.43
2023-05-23T19:37:32.966Z,2.63
2023-05-23T19:40:00.762Z,2.43
2023-05-23T19:42:28.266Z,2.83
2023-05-23T19:44:55.270Z,2.37
2023-05-23T19:47:22.150Z,2.80
2023-05-23T19:49:49.057Z,2.40
2023-05-23T19:52:16.009Z,2.70
2023-05-23T19:54:43.020Z,3.43
2023-05-23T19:57:09.833Z,2.80
2023-05-23T19:59:36.629Z,3.30
2023-05-23T20:02:03.431Z,2.20
2023-05-23T20:04:30.366Z,2.83
2023-05-23T20:06:57.168Z,2.43
2023-05-23T20:09:24.997Z,2.67
2023-05-23T20:11:51.754Z,2.83
2023-05-23T20:14:18.620Z,2.40
2023-05-23T20:16:46.048Z,2.97
2023-05-23T20:19:12.995Z,2.40
2023-05-23T20:21:39.847Z,2.53
2023-05-23T20:24:06.848Z,2.47
2023-05-23T20:26:33.770Z,2.53
2023-05-23T20:29:01.400Z,3.07
2023-05-23T20:31:28.425Z,3.00
2023-05-23T20:33:55.701Z,2.43
2023-05-23T20:36:23.627Z,2.70
2023-05-23T20:38:50.466Z,2.40
2023-05-23T20:41:17.629Z,2.83
2023-05-23T20:43:45.796Z,2.93
2023-05-23T20:46:15.979Z,2.20
2023-05-23T20:48:42.789Z,2.60
2023-05-23T20:51:09.989Z,2.80
2023-05-23T20:53:36.922Z,2.53
2023-05-23T20:56:04.566Z,2.43
2023-05-23T20:58:31.807Z,2.27
2023-05-23T21:00:59.590Z,2.63
2023-05-23T21:03:26.541Z,2.60
2023-05-23T21:05:53.609Z,2.87
2023-05-23T21:08:21.187Z,2.73
2023-05-23T21:10:50.904Z,2.77
2023-05-23T21:13:19.399Z,2.53
2023-05-23T21:15:46.253Z,2.70
2023-05-23T21:18:13.029Z,2.77
2023-05-23T21:20:39.944Z,2.30
2023-05-23T21:23:07.144Z,2.40
2023-05-23T21:25:34.026Z,2.77
2023-05-23T21:28:01.191Z,3.00
2023-05-23T21:30:28.364Z,2.73
2023-05-23T21:32:56.056Z,2.53
2023-05-23T21:35:22.904Z,2.53
2023-05-23T21:37:49.864Z,2.20
2023-05-23T21:40:17.700Z,2.23
2023-05-23T21:42:44.425Z,3.40
2023-05-23T21:45:11.700Z,2.30
2023-05-23T21:47:38.737Z,3.07
2023-05-23T21:50:06.273Z,2.50
2023-05-23T21:52:37.204Z,2.40
2023-05-23T21:55:04.400Z,2.23
2023-05-23T21:57:34.144Z,2.27
2023-05-23T22:00:14.910Z,2.17
2023-05-23T22:02:45.025Z,2.40
2023-05-23T22:05:27.460Z,2.50
2023-05-23T22:07:54.368Z,2.50
2023-05-23T22:10:21.296Z,2.17
2023-05-23T22:12:51.300Z,2.77
2023-05-23T22:15:18.322Z,2.50
2023-05-23T22:17:46.994Z,2.50
2023-05-23T22:20:22.372Z,2.20
2023-05-23T22:22:49.490Z,3.17
2023-05-23T22:25:19.435Z,2.50
2023-05-23T22:27:46.331Z,2.30
2023-05-23T22:30:13.400Z,2.07
2023-05-23T22:32:40.242Z,2.20
2023-05-23T22:35:07.281Z,2.23
2023-05-23T22:37:34.415Z,2.60
2023-05-23T22:40:03.778Z,2.17
2023-05-23T22:42:30.619Z,2.50
2023-05-23T22:45:00.108Z,1.70
2023-05-23T22:47:29.265Z,2.37
2023-05-23T22:50:03.597Z,2.50
2023-05-23T22:52:34.542Z,2.43
2023-05-23T22:55:01.395Z,2.40
2023-05-23T22:57:28.207Z,2.20
2023-05-23T22:59:58.759Z,3.43
2023-05-23T23:02:25.822Z,2.43
2023-05-23T23:04:52.716Z,2.20
2023-05-23T23:07:20.611Z,2.57
2023-05-23T23:09:47.310Z,2.50
2023-05-23T23:12:14.212Z,1.97
2023-05-23T23:14:40.962Z,2.73
2023-05-23T23:17:07.835Z,2.13
2023-05-23T23:19:35.305Z,1.97
2023-05-23T23:22:02.189Z,2.10
2023-05-23T23:24:29.015Z,2.10
2023-05-23T23:26:55.899Z,2.63
2023-05-23T23:29:23.897Z,2.00
2023-05-23T23:31:51.665Z,2.40
2023-05-23T23:34:18.782Z,2.17
2023-05-23T23:36:45.782Z,2.87
2023-05-23T23:39:12.476Z,2.40
2023-05-23T23:41:39.794Z,2.73
2023-05-23T23:44:06.818Z,3.10
2023-05-23T23:46:33.901Z,3.33
2023-05-23T23:49:09.257Z,2.27
2023-05-23T23:51:36.548Z,2.77
2023-05-23T23:54:03.460Z,2.80
2023-05-23T23:56:30.288Z,2.60
2023-05-23T23:58:57.114Z,2.17
